sensor_id;sensor_type;location;lat;lon;timestamp;pressure;altitude;pressure_sealevel;temperature;humidity
52441;BME280;39611;46.062;8.950;2023-02-14T00:01:09;98303.16;;;3.31;69.64
52441;BME280;39611;46.062;8.950;2023-02-14T00:03:36;98299.72;;;3.45;68.82
52441;BME280;39611;46.062;8.950;2023-02-14T00:06:10;98301.25;;;3.54;68.41
52441;BME280;39611;46.062;8.950;2023-02-14T00:08:37;98293.69;;;3.44;68.87
52441;BME280;39611;46.062;8.950;2023-02-14T00:11:06;98295.50;;;3.44;68.79
52441;BME280;39611;46.062;8.950;2023-02-14T00:13:34;98288.34;;;3.53;68.11
52441;BME280;39611;46.062;8.950;2023-02-14T00:16:00;98291.06;;;3.59;68.26
52441;BME280;39611;46.062;8.950;2023-02-14T00:18:27;98278.97;;;3.58;68.14
52441;BME280;39611;46.062;8.950;2023-02-14T00:21:13;98277.84;;;3.67;67.62
52441;BME280;39611;46.062;8.950;2023-02-14T00:23:39;98287.22;;;3.77;67.12
52441;BME280;39611;46.062;8.950;2023-02-14T00:26:12;98273.94;;;3.78;66.84
52441;BME280;39611;46.062;8.950;2023-02-14T00:28:39;98278.38;;;3.78;67.38
52441;BME280;39611;46.062;8.950;2023-02-14T00:31:06;98275.19;;;3.61;68.20
52441;BME280;39611;46.062;8.950;2023-02-14T00:33:32;98273.13;;;3.78;67.37
52441;BME280;39611;46.062;8.950;2023-02-14T00:36:02;98270.19;;;3.66;67.73
52441;BME280;39611;46.062;8.950;2023-02-14T00:38:29;98271.00;;;3.66;67.67
52441;BME280;39611;46.062;8.950;2023-02-14T00:40:55;98274.59;;;3.65;67.76
52441;BME280;39611;46.062;8.950;2023-02-14T00:43:22;98272.25;;;3.70;67.87
52441;BME280;39611;46.062;8.950;2023-02-14T00:45:49;98269.63;;;3.70;67.36
52441;BME280;39611;46.062;8.950;2023-02-14T00:48:16;98271.72;;;3.60;68.37
52441;BME280;39611;46.062;8.950;2023-02-14T00:50:42;98268.78;;;3.48;68.66
52441;BME280;39611;46.062;8.950;2023-02-14T00:53:11;98265.63;;;3.53;68.29
52441;BME280;39611;46.062;8.950;2023-02-14T00:55:37;98263.28;;;3.58;67.76
52441;BME280;39611;46.062;8.950;2023-02-14T00:58:04;98261.91;;;3.47;68.82
52441;BME280;39611;46.062;8.950;2023-02-14T01:00:30;98258.44;;;3.25;69.66
52441;BME280;39611;46.062;8.950;2023-02-14T01:02:57;98263.69;;;3.25;69.02
52441;BME280;39611;46.062;8.950;2023-02-14T01:05:24;98258.88;;;3.29;68.92
52441;BME280;39611;46.062;8.950;2023-02-14T01:07:50;98260.06;;;3.26;69.23
52441;BME280;39611;46.062;8.950;2023-02-14T01:10:16;98255.06;;;3.46;68.67
52441;BME280;39611;46.062;8.950;2023-02-14T01:12:43;98253.16;;;3.55;68.11
52441;BME280;39611;46.062;8.950;2023-02-14T01:15:09;98249.03;;;3.46;68.30
52441;BME280;39611;46.062;8.950;2023-02-14T01:17:36;98245.38;;;3.62;67.15
52441;BME280;39611;46.062;8.950;2023-02-14T01:20:02;98241.44;;;3.51;67.52
52441;BME280;39611;46.062;8.950;2023-02-14T01:22:34;98238.72;;;3.59;67.18
52441;BME280;39611;46.062;8.950;2023-02-14T01:25:00;98242.09;;;3.38;68.51
52441;BME280;39611;46.062;8.950;2023-02-14T01:27:27;98242.84;;;3.17;69.12
52441;BME280;39611;46.062;8.950;2023-02-14T01:29:53;98241.47;;;3.21;68.55
52441;BME280;39611;46.062;8.950;2023-02-14T01:32:20;98241.66;;;3.35;67.87
52441;BME280;39611;46.062;8.950;2023-02-14T01:34:46;98233.56;;;3.30;68.00
52441;BME280;39611;46.062;8.950;2023-02-14T01:37:13;98234.44;;;3.37;67.96
52441;BME280;39611;46.062;8.950;2023-02-14T01:39:39;98232.97;;;3.34;68.16
52441;BME280;39611;46.062;8.950;2023-02-14T01:42:06;98231.81;;;3.37;67.89
52441;BME280;39611;46.062;8.950;2023-02-14T01:47:04;98225.88;;;3.28;68.11
52441;BME280;39611;46.062;8.950;2023-02-14T01:49:37;98227.06;;;3.25;68.15
52441;BME280;39611;46.062;8.950;2023-02-14T01:52:21;98226.41;;;3.38;67.63
52441;BME280;39611;46.062;8.950;2023-02-14T01:54:53;98229.66;;;3.25;68.66
52441;BME280;39611;46.062;8.950;2023-02-14T01:57:21;98227.78;;;3.19;68.87
52441;BME280;39611;46.062;8.950;2023-02-14T01:59:55;98224.28;;;3.27;68.07
52441;BME280;39611;46.062;8.950;2023-02-14T02:02:43;98224.91;;;3.14;68.62
52441;BME280;39611;46.062;8.950;2023-02-14T02:05:10;98221.38;;;3.22;68.13
52441;BME280;39611;46.062;8.950;2023-02-14T02:07:37;98228.50;;;3.28;67.94
52441;BME280;39611;46.062;8.950;2023-02-14T02:10:05;98221.03;;;3.25;68.26
52441;BME280;39611;46.062;8.950;2023-02-14T02:12:32;98226.41;;;3.23;68.36
52441;BME280;39611;46.062;8.950;2023-02-14T02:15:01;98222.19;;;3.22;68.14
52441;BME280;39611;46.062;8.950;2023-02-14T02:17:44;98219.31;;;3.17;68.67
52441;BME280;39611;46.062;8.950;2023-02-14T02:39:58;98205.72;;;2.92;69.65
52441;BME280;39611;46.062;8.950;2023-02-14T02:45:49;98207.22;;;3.16;68.99
52441;BME280;39611;46.062;8.950;2023-02-14T02:48:54;98208.84;;;3.17;68.83
52441;BME280;39611;46.062;8.950;2023-02-14T02:51:38;98205.97;;;3.12;69.11
52441;BME280;39611;46.062;8.950;2023-02-14T02:54:57;98202.19;;;3.00;69.80
52441;BME280;39611;46.062;8.950;2023-02-14T02:57:31;98207.16;;;2.95;69.74
52441;BME280;39611;46.062;8.950;2023-02-14T03:00:01;98203.31;;;2.91;69.26
52441;BME280;39611;46.062;8.950;2023-02-14T03:02:40;98200.75;;;2.97;69.51
52441;BME280;39611;46.062;8.950;2023-02-14T03:05:28;98199.69;;;3.06;69.26
52441;BME280;39611;46.062;8.950;2023-02-14T03:07:55;98197.06;;;2.92;70.22
52441;BME280;39611;46.062;8.950;2023-02-14T03:10:24;98198.78;;;2.99;69.81
52441;BME280;39611;46.062;8.950;2023-02-14T03:22:05;98190.56;;;2.88;70.46
52441;BME280;39611;46.062;8.950;2023-02-14T03:27:17;98177.06;;;2.84;69.91
52441;BME280;39611;46.062;8.950;2023-02-14T03:32:22;98170.38;;;2.96;69.85
52441;BME280;39611;46.062;8.950;2023-02-14T03:35:19;98173.00;;;2.96;69.92
52441;BME280;39611;46.062;8.950;2023-02-14T03:37:54;98170.41;;;2.81;70.98
52441;BME280;39611;46.062;8.950;2023-02-14T03:40:26;98174.09;;;2.72;71.08
52441;BME280;39611;46.062;8.950;2023-02-14T03:42:59;98173.00;;;2.67;70.96
52441;BME280;39611;46.062;8.950;2023-02-14T03:45:36;98164.91;;;2.76;70.39
52441;BME280;39611;46.062;8.950;2023-02-14T03:48:07;98154.28;;;2.63;70.52
52441;BME280;39611;46.062;8.950;2023-02-14T03:50:37;98162.56;;;2.81;69.42
52441;BME280;39611;46.062;8.950;2023-02-14T03:53:07;98155.34;;;2.54;70.81
52441;BME280;39611;46.062;8.950;2023-02-14T03:55:40;98152.94;;;2.52;70.52
52441;BME280;39611;46.062;8.950;2023-02-14T03:58:22;98155.63;;;2.74;69.47
52441;BME280;39611;46.062;8.950;2023-02-14T04:00:51;98149.41;;;2.60;70.05
52441;BME280;39611;46.062;8.950;2023-02-14T04:03:22;98147.06;;;2.65;69.58
52441;BME280;39611;46.062;8.950;2023-02-14T04:05:50;98141.28;;;2.84;69.66
52441;BME280;39611;46.062;8.950;2023-02-14T04:08:22;98141.53;;;2.90;69.62
52441;BME280;39611;46.062;8.950;2023-02-14T04:10:51;98141.47;;;2.53;71.41
52441;BME280;39611;46.062;8.950;2023-02-14T04:13:18;98140.22;;;2.34;71.59
52441;BME280;39611;46.062;8.950;2023-02-14T04:15:45;98138.06;;;2.53;70.84
52441;BME280;39611;46.062;8.950;2023-02-14T04:18:11;98140.22;;;2.64;69.50
52441;BME280;39611;46.062;8.950;2023-02-14T04:20:57;98127.88;;;2.73;69.39
52441;BME280;39611;46.062;8.950;2023-02-14T04:23:24;98137.59;;;2.79;70.15
52441;BME280;39611;46.062;8.950;2023-02-14T04:25:50;98126.63;;;2.54;70.92
52441;BME280;39611;46.062;8.950;2023-02-14T04:28:16;98128.69;;;2.73;70.32
52441;BME280;39611;46.062;8.950;2023-02-14T04:30:43;98127.31;;;2.77;69.84
52441;BME280;39611;46.062;8.950;2023-02-14T04:33:09;98120.03;;;2.73;70.07
52441;BME280;39611;46.062;8.950;2023-02-14T04:35:36;98126.44;;;2.70;69.08
52441;BME280;39611;46.062;8.950;2023-02-14T04:38:03;98115.63;;;2.73;69.81
52441;BME280;39611;46.062;8.950;2023-02-14T04:40:30;98112.53;;;2.70;69.85
52441;BME280;39611;46.062;8.950;2023-02-14T04:42:56;98109.31;;;2.68;70.20
52441;BME280;39611;46.062;8.950;2023-02-14T04:45:23;98105.81;;;2.60;70.68
52441;BME280;39611;46.062;8.950;2023-02-14T04:47:49;98110.50;;;2.65;69.61
52441;BME280;39611;46.062;8.950;2023-02-14T04:50:15;98115.09;;;2.63;69.21
52441;BME280;39611;46.062;8.950;2023-02-14T04:52:42;98111.72;;;2.84;68.92
52441;BME280;39611;46.062;8.950;2023-02-14T04:55:08;98107.69;;;2.81;69.13
52441;BME280;39611;46.062;8.950;2023-02-14T04:57:35;98102.72;;;2.72;69.82
52441;BME280;39611;46.062;8.950;2023-02-14T05:00:03;98101.28;;;2.69;68.49
52441;BME280;39611;46.062;8.950;2023-02-14T05:02:29;98100.13;;;2.72;69.52
52441;BME280;39611;46.062;8.950;2023-02-14T05:04:56;98098.31;;;2.72;68.83
52441;BME280;39611;46.062;8.950;2023-02-14T05:07:22;98097.84;;;2.83;68.40
52441;BME280;39611;46.062;8.950;2023-02-14T05:09:48;98095.94;;;2.77;69.07
52441;BME280;39611;46.062;8.950;2023-02-14T05:12:15;98095.28;;;2.39;70.79
52441;BME280;39611;46.062;8.950;2023-02-14T05:14:42;98092.31;;;2.27;70.98
52441;BME280;39611;46.062;8.950;2023-02-14T05:17:08;98097.63;;;2.34;70.98
52441;BME280;39611;46.062;8.950;2023-02-14T05:19:35;98093.47;;;2.25;71.32
52441;BME280;39611;46.062;8.950;2023-02-14T05:22:01;98092.69;;;2.39;70.96
52441;BME280;39611;46.062;8.950;2023-02-14T05:24:28;98100.84;;;2.51;70.97
52441;BME280;39611;46.062;8.950;2023-02-14T05:26:54;98098.06;;;2.37;71.54
52441;BME280;39611;46.062;8.950;2023-02-14T05:29:20;98106.72;;;2.53;70.11
52441;BME280;39611;46.062;8.950;2023-02-14T05:31:47;98106.09;;;2.51;70.76
52441;BME280;39611;46.062;8.950;2023-02-14T05:34:13;98105.38;;;2.57;70.15
52441;BME280;39611;46.062;8.950;2023-02-14T05:36:40;98110.13;;;2.68;69.83
52441;BME280;39611;46.062;8.950;2023-02-14T05:39:06;98109.38;;;2.74;69.40
52441;BME280;39611;46.062;8.950;2023-02-14T05:41:33;98108.50;;;2.67;69.67
52441;BME280;39611;46.062;8.950;2023-02-14T05:43:59;98106.34;;;2.56;70.43
52441;BME280;39611;46.062;8.950;2023-02-14T05:46:26;98112.31;;;2.50;70.30
52441;BME280;39611;46.062;8.950;2023-02-14T05:48:52;98113.47;;;2.62;69.67
52441;BME280;39611;46.062;8.950;2023-02-14T05:51:18;98104.75;;;2.40;70.76
52441;BME280;39611;46.062;8.950;2023-02-14T05:53:45;98106.19;;;2.43;69.85
52441;BME280;39611;46.062;8.950;2023-02-14T05:56:12;98107.34;;;2.55;70.07
52441;BME280;39611;46.062;8.950;2023-02-14T05:58:38;98099.63;;;2.47;70.55
52441;BME280;39611;46.062;8.950;2023-02-14T06:01:04;98101.75;;;2.58;70.40
52441;BME280;39611;46.062;8.950;2023-02-14T06:03:31;98102.03;;;2.48;69.87
52441;BME280;39611;46.062;8.950;2023-02-14T06:05:57;98104.81;;;2.61;69.15
52441;BME280;39611;46.062;8.950;2023-02-14T06:08:24;98101.41;;;2.46;70.49
52441;BME280;39611;46.062;8.950;2023-02-14T06:10:50;98109.97;;;2.55;70.08
52441;BME280;39611;46.062;8.950;2023-02-14T06:13:17;98103.09;;;2.54;70.02
52441;BME280;39611;46.062;8.950;2023-02-14T06:15:44;98113.84;;;2.44;70.84
52441;BME280;39611;46.062;8.950;2023-02-14T06:18:10;98112.03;;;2.45;70.75
52441;BME280;39611;46.062;8.950;2023-02-14T06:20:37;98120.59;;;2.53;70.02
52441;BME280;39611;46.062;8.950;2023-02-14T06:23:03;98121.22;;;2.55;70.32
52441;BME280;39611;46.062;8.950;2023-02-14T06:25:30;98120.25;;;2.42;70.88
52441;BME280;39611;46.062;8.950;2023-02-14T06:27:57;98125.25;;;2.43;70.65
52441;BME280;39611;46.062;8.950;2023-02-14T06:30:24;98133.09;;;2.43;70.33
52441;BME280;39611;46.062;8.950;2023-02-14T06:32:52;98137.25;;;2.52;69.98
52441;BME280;39611;46.062;8.950;2023-02-14T06:35:18;98135.88;;;2.71;68.97
52441;BME280;39611;46.062;8.950;2023-02-14T06:37:45;98150.41;;;2.59;70.06
52441;BME280;39611;46.062;8.950;2023-02-14T06:40:12;98146.16;;;2.43;70.64
52441;BME280;39611;46.062;8.950;2023-02-14T06:42:39;98152.00;;;2.30;70.88
52441;BME280;39611;46.062;8.950;2023-02-14T06:45:06;98155.00;;;2.57;69.97
52441;BME280;39611;46.062;8.950;2023-02-14T06:47:32;98158.44;;;2.57;70.02
52441;BME280;39611;46.062;8.950;2023-02-14T06:50:00;98155.44;;;2.60;69.82
52441;BME280;39611;46.062;8.950;2023-02-14T06:52:30;98161.41;;;2.54;70.26
52441;BME280;39611;46.062;8.950;2023-02-14T06:54:57;98162.09;;;2.48;69.97
52441;BME280;39611;46.062;8.950;2023-02-14T06:57:23;98169.50;;;2.59;70.21
52441;BME280;39611;46.062;8.950;2023-02-14T06:59:50;98166.88;;;2.45;71.25
52441;BME280;39611;46.062;8.950;2023-02-14T07:02:16;98174.38;;;2.48;70.25
52441;BME280;39611;46.062;8.950;2023-02-14T07:04:43;98176.34;;;2.46;70.55
52441;BME280;39611;46.062;8.950;2023-02-14T07:07:09;98178.59;;;2.49;70.52
52441;BME280;39611;46.062;8.950;2023-02-14T07:09:36;98180.66;;;2.53;70.17
52441;BME280;39611;46.062;8.950;2023-02-14T07:12:02;98178.88;;;2.69;69.95
52441;BME280;39611;46.062;8.950;2023-02-14T07:14:28;98183.47;;;2.52;71.70
52441;BME280;39611;46.062;8.950;2023-02-14T07:16:55;98178.69;;;2.55;70.61
52441;BME280;39611;46.062;8.950;2023-02-14T07:19:21;98180.03;;;2.66;70.14
52441;BME280;39611;46.062;8.950;2023-02-14T07:21:48;98177.97;;;2.61;70.71
52441;BME280;39611;46.062;8.950;2023-02-14T07:24:14;98181.94;;;2.57;71.23
52441;BME280;39611;46.062;8.950;2023-02-14T07:26:41;98181.84;;;2.51;71.62
52441;BME280;39611;46.062;8.950;2023-02-14T07:29:07;98181.31;;;2.55;71.66
52441;BME280;39611;46.062;8.950;2023-02-14T07:31:33;98185.44;;;2.79;70.54
52441;BME280;39611;46.062;8.950;2023-02-14T07:34:00;98184.28;;;2.82;68.97
52441;BME280;39611;46.062;8.950;2023-02-14T07:36:27;98188.06;;;2.94;68.95
52441;BME280;39611;46.062;8.950;2023-02-14T07:38:56;98190.22;;;2.76;70.49
52441;BME280;39611;46.062;8.950;2023-02-14T07:41:23;98188.69;;;2.81;69.38
52441;BME280;39611;46.062;8.950;2023-02-14T07:43:50;98189.97;;;2.86;69.86
52441;BME280;39611;46.062;8.950;2023-02-14T07:46:16;98198.16;;;2.82;70.59
52441;BME280;39611;46.062;8.950;2023-02-14T07:48:43;98201.31;;;2.78;71.35
52441;BME280;39611;46.062;8.950;2023-02-14T07:51:10;98198.69;;;2.93;70.60
52441;BME280;39611;46.062;8.950;2023-02-14T07:53:36;98192.00;;;2.90;70.10
52441;BME280;39611;46.062;8.950;2023-02-14T07:56:03;98198.06;;;2.91;70.57
52441;BME280;39611;46.062;8.950;2023-02-14T07:58:29;98198.50;;;3.09;69.80
52441;BME280;39611;46.062;8.950;2023-02-14T08:00:55;98191.88;;;3.28;69.01
52441;BME280;39611;46.062;8.950;2023-02-14T08:03:22;98200.09;;;3.25;69.38
52441;BME280;39611;46.062;8.950;2023-02-14T08:05:48;98201.00;;;3.17;69.93
52441;BME280;39611;46.062;8.950;2023-02-14T08:08:24;98200.38;;;3.15;70.17
52441;BME280;39611;46.062;8.950;2023-02-14T08:10:51;98201.41;;;3.36;68.70
52441;BME280;39611;46.062;8.950;2023-02-14T08:13:17;98196.19;;;3.36;69.44
52441;BME280;39611;46.062;8.950;2023-02-14T08:15:44;98204.22;;;3.34;68.93
52441;BME280;39611;46.062;8.950;2023-02-14T08:18:38;98205.75;;;3.28;70.32
52441;BME280;39611;46.062;8.950;2023-02-14T08:21:07;98203.78;;;3.31;70.97
52441;BME280;39611;46.062;8.950;2023-02-14T08:23:34;98206.66;;;3.36;70.62
52441;BME280;39611;46.062;8.950;2023-02-14T08:26:01;98205.91;;;3.42;70.75
52441;BME280;39611;46.062;8.950;2023-02-14T08:28:28;98202.75;;;3.46;70.72
52441;BME280;39611;46.062;8.950;2023-02-14T08:30:55;98203.88;;;3.59;69.84
52441;BME280;39611;46.062;8.950;2023-02-14T08:33:21;98205.19;;;3.69;68.88
52441;BME280;39611;46.062;8.950;2023-02-14T08:35:50;98200.97;;;3.68;68.98
52441;BME280;39611;46.062;8.950;2023-02-14T08:38:16;98206.47;;;3.74;68.47
52441;BME280;39611;46.062;8.950;2023-02-14T08:40:43;98203.91;;;3.80;69.10
52441;BME280;39611;46.062;8.950;2023-02-14T08:43:10;98199.53;;;3.87;68.53
52441;BME280;39611;46.062;8.950;2023-02-14T08:45:37;98189.25;;;3.86;68.95
52441;BME280;39611;46.062;8.950;2023-02-14T08:48:06;98183.38;;;4.05;67.01
52441;BME280;39611;46.062;8.950;2023-02-14T08:50:33;98180.38;;;4.08;67.23
52441;BME280;39611;46.062;8.950;2023-02-14T08:52:59;98181.72;;;4.26;65.87
52441;BME280;39611;46.062;8.950;2023-02-14T08:55:26;98180.16;;;4.31;66.90
52441;BME280;39611;46.062;8.950;2023-02-14T08:57:55;98175.66;;;4.25;67.66
52441;BME280;39611;46.062;8.950;2023-02-14T09:00:23;98175.72;;;4.32;66.96
52441;BME280;39611;46.062;8.950;2023-02-14T09:02:50;98170.66;;;4.30;67.05
52441;BME280;39611;46.062;8.950;2023-02-14T09:05:19;98167.31;;;4.43;66.67
52441;BME280;39611;46.062;8.950;2023-02-14T09:07:46;98166.97;;;4.53;67.02
52441;BME280;39611;46.062;8.950;2023-02-14T09:10:12;98165.84;;;4.62;66.54
52441;BME280;39611;46.062;8.950;2023-02-14T09:12:40;98167.88;;;4.67;66.77
52441;BME280;39611;46.062;8.950;2023-02-14T09:15:08;98166.72;;;4.76;65.73
52441;BME280;39611;46.062;8.950;2023-02-14T09:17:35;98172.25;;;4.94;64.30
52441;BME280;39611;46.062;8.950;2023-02-14T09:20:04;98169.28;;;5.11;63.01
52441;BME280;39611;46.062;8.950;2023-02-14T09:22:32;98166.13;;;5.22;62.67
52441;BME280;39611;46.062;8.950;2023-02-14T09:24:59;98164.91;;;5.31;61.91
52441;BME280;39611;46.062;8.950;2023-02-14T09:27:26;98169.75;;;5.34;61.66
52441;BME280;39611;46.062;8.950;2023-02-14T09:29:52;98174.78;;;5.29;61.66
52441;BME280;39611;46.062;8.950;2023-02-14T09:32:19;98174.06;;;5.48;60.43
52441;BME280;39611;46.062;8.950;2023-02-14T09:34:45;98167.22;;;5.61;59.93
52441;BME280;39611;46.062;8.950;2023-02-14T09:37:30;98162.59;;;5.69;59.52
52441;BME280;39611;46.062;8.950;2023-02-14T09:39:58;98162.38;;;5.78;60.01
52441;BME280;39611;46.062;8.950;2023-02-14T09:42:58;98158.16;;;5.83;59.15
52441;BME280;39611;46.062;8.950;2023-02-14T09:45:28;98158.97;;;5.90;58.28
52441;BME280;39611;46.062;8.950;2023-02-14T09:48:36;98163.47;;;5.97;57.96
52441;BME280;39611;46.062;8.950;2023-02-14T09:51:04;98156.16;;;6.12;57.79
52441;BME280;39611;46.062;8.950;2023-02-14T09:53:34;98155.78;;;6.15;58.12
52441;BME280;39611;46.062;8.950;2023-02-14T09:56:23;98152.53;;;6.20;57.92
52441;BME280;39611;46.062;8.950;2023-02-14T09:58:59;98152.53;;;6.26;57.96
52441;BME280;39611;46.062;8.950;2023-02-14T10:01:35;98148.28;;;6.32;57.69
52441;BME280;39611;46.062;8.950;2023-02-14T10:04:15;98152.50;;;6.40;58.06
52441;BME280;39611;46.062;8.950;2023-02-14T10:07:14;98156.09;;;6.65;58.29
52441;BME280;39611;46.062;8.950;2023-02-14T10:15:38;98155.03;;;6.79;56.77
52441;BME280;39611;46.062;8.950;2023-02-14T10:18:21;98147.69;;;6.95;53.26
52441;BME280;39611;46.062;8.950;2023-02-14T10:20:56;98151.19;;;6.89;54.39
52441;BME280;39611;46.062;8.950;2023-02-14T10:23:48;98145.84;;;7.02;53.93
52441;BME280;39611;46.062;8.950;2023-02-14T10:26:25;98145.44;;;7.05;54.14
52441;BME280;39611;46.062;8.950;2023-02-14T10:28:54;98136.13;;;7.09;53.48
52441;BME280;39611;46.062;8.950;2023-02-14T10:34:15;98125.88;;;7.33;50.45
52441;BME280;39611;46.062;8.950;2023-02-14T10:45:40;98112.19;;;7.81;50.87
52441;BME280;39611;46.062;8.950;2023-02-14T10:51:00;98099.88;;;8.00;50.19
52441;BME280;39611;46.062;8.950;2023-02-14T10:56:36;98095.13;;;8.08;50.25
52441;BME280;39611;46.062;8.950;2023-02-14T11:01:53;98084.09;;;8.43;49.39
52441;BME280;39611;46.062;8.950;2023-02-14T11:04:23;98084.22;;;8.48;49.71
52441;BME280;39611;46.062;8.950;2023-02-14T11:06:50;98074.78;;;8.59;49.72
52441;BME280;39611;46.062;8.950;2023-02-14T11:09:18;98067.38;;;8.49;49.96
52441;BME280;39611;46.062;8.950;2023-02-14T11:11:58;98071.69;;;8.62;49.75
52441;BME280;39611;46.062;8.950;2023-02-14T11:14:33;98070.91;;;8.62;49.66
52441;BME280;39611;46.062;8.950;2023-02-14T11:17:30;98059.59;;;8.55;50.73
52441;BME280;39611;46.062;8.950;2023-02-14T11:20:21;98054.63;;;8.65;50.15
52441;BME280;39611;46.062;8.950;2023-02-14T11:22:45;98049.03;;;8.73;49.56
52441;BME280;39611;46.062;8.950;2023-02-14T11:25:28;98055.34;;;8.72;49.96
52441;BME280;39611;46.062;8.950;2023-02-14T11:27:59;98044.50;;;8.62;50.65
52441;BME280;39611;46.062;8.950;2023-02-14T11:30:32;98036.47;;;8.57;50.16
52441;BME280;39611;46.062;8.950;2023-02-14T11:33:00;98042.88;;;8.61;50.22
52441;BME280;39611;46.062;8.950;2023-02-14T11:35:29;98030.06;;;8.94;48.48
52441;BME280;39611;46.062;8.950;2023-02-14T11:38:02;98030.94;;;9.07;48.21
52441;BME280;39611;46.062;8.950;2023-02-14T11:40:35;98028.47;;;8.93;48.92
52441;BME280;39611;46.062;8.950;2023-02-14T11:45:44;98014.22;;;9.25;47.10
52441;BME280;39611;46.062;8.950;2023-02-14T11:48:27;98015.66;;;9.51;46.03
52441;BME280;39611;46.062;8.950;2023-02-14T11:51:10;98016.69;;;9.50;45.74
52441;BME280;39611;46.062;8.950;2023-02-14T11:56:08;97999.75;;;9.39;46.22
52441;BME280;39611;46.062;8.950;2023-02-14T11:58:38;98000.72;;;9.80;44.15
52441;BME280;39611;46.062;8.950;2023-02-14T12:01:06;97995.00;;;9.71;45.14
52441;BME280;39611;46.062;8.950;2023-02-14T12:03:38;97995.56;;;9.97;44.07
52441;BME280;39611;46.062;8.950;2023-02-14T12:06:09;97994.75;;;9.84;44.13
52441;BME280;39611;46.062;8.950;2023-02-14T12:08:36;97992.09;;;9.84;45.03
52441;BME280;39611;46.062;8.950;2023-02-14T12:11:17;97984.84;;;10.03;43.83
52441;BME280;39611;46.062;8.950;2023-02-14T12:13:55;97989.19;;;10.21;43.19
52441;BME280;39611;46.062;8.950;2023-02-14T12:16:30;97988.97;;;10.11;44.28
52441;BME280;39611;46.062;8.950;2023-02-14T12:19:15;97981.59;;;10.37;42.48
52441;BME280;39611;46.062;8.950;2023-02-14T12:21:48;97979.66;;;10.09;43.53
52441;BME280;39611;46.062;8.950;2023-02-14T12:24:30;97967.44;;;10.19;43.08
52441;BME280;39611;46.062;8.950;2023-02-14T12:27:21;97966.75;;;10.24;43.46
52441;BME280;39611;46.062;8.950;2023-02-14T12:30:19;97958.97;;;10.29;42.14
52441;BME280;39611;46.062;8.950;2023-02-14T12:32:50;97955.06;;;10.20;43.57
52441;BME280;39611;46.062;8.950;2023-02-14T12:41:25;97939.03;;;10.26;44.47
52441;BME280;39611;46.062;8.950;2023-02-14T12:44:02;97934.94;;;10.31;43.75
52441;BME280;39611;46.062;8.950;2023-02-14T12:46:56;97935.03;;;10.24;43.81
52441;BME280;39611;46.062;8.950;2023-02-14T12:49:57;97934.13;;;10.30;43.84
52441;BME280;39611;46.062;8.950;2023-02-14T12:52:48;97926.53;;;10.34;43.92
52441;BME280;39611;46.062;8.950;2023-02-14T13:01:31;97906.13;;;10.46;42.30
52441;BME280;39611;46.062;8.950;2023-02-14T13:06:30;97900.34;;;10.49;42.70
52441;BME280;39611;46.062;8.950;2023-02-14T13:17:37;97872.31;;;10.48;43.16
52441;BME280;39611;46.062;8.950;2023-02-14T13:22:47;97861.47;;;10.49;43.62
52441;BME280;39611;46.062;8.950;2023-02-14T13:25:30;97868.59;;;10.49;44.19
52441;BME280;39611;46.062;8.950;2023-02-14T13:28:01;97859.41;;;10.52;44.01
52441;BME280;39611;46.062;8.950;2023-02-14T13:30:38;97847.97;;;10.80;41.96
52441;BME280;39611;46.062;8.950;2023-02-14T13:33:31;97850.28;;;10.93;40.94
52441;BME280;39611;46.062;8.950;2023-02-14T13:36:02;97852.69;;;11.11;39.98
52441;BME280;39611;46.062;8.950;2023-02-14T13:38:29;97842.34;;;10.93;40.97
52441;BME280;39611;46.062;8.950;2023-02-14T13:40:58;97835.03;;;10.83;39.81
52441;BME280;39611;46.062;8.950;2023-02-14T13:46:20;97833.84;;;10.74;39.92
52441;BME280;39611;46.062;8.950;2023-02-14T13:49:00;97830.28;;;10.68;39.38
52441;BME280;39611;46.062;8.950;2023-02-14T13:54:42;97818.41;;;10.71;38.65
52441;BME280;39611;46.062;8.950;2023-02-14T14:02:53;97810.41;;;10.66;39.65
52441;BME280;39611;46.062;8.950;2023-02-14T14:08:17;97812.97;;;11.11;39.33
52441;BME280;39611;46.062;8.950;2023-02-14T14:11:09;97811.50;;;11.21;38.53
52441;BME280;39611;46.062;8.950;2023-02-14T14:18:50;97804.63;;;11.03;38.73
52441;BME280;39611;46.062;8.950;2023-02-14T14:21:43;97805.09;;;11.17;38.20
52441;BME280;39611;46.062;8.950;2023-02-14T14:24:25;97805.34;;;10.98;39.55
52441;BME280;39611;46.062;8.950;2023-02-14T14:29:59;97803.50;;;11.15;39.26
52441;BME280;39611;46.062;8.950;2023-02-14T14:32:33;97799.66;;;11.06;39.73
52441;BME280;39611;46.062;8.950;2023-02-14T14:35:03;97793.56;;;11.06;39.55
52441;BME280;39611;46.062;8.950;2023-02-14T14:37:33;97795.94;;;11.07;39.85
52441;BME280;39611;46.062;8.950;2023-02-14T14:40:03;97796.44;;;11.04;39.93
52441;BME280;39611;46.062;8.950;2023-02-14T14:42:35;97790.03;;;11.00;39.74
52441;BME280;39611;46.062;8.950;2023-02-14T14:45:20;97794.75;;;10.98;39.72
52441;BME280;39611;46.062;8.950;2023-02-14T14:47:50;97796.28;;;11.11;40.12
52441;BME280;39611;46.062;8.950;2023-02-14T14:50:24;97784.94;;;11.15;40.27
52441;BME280;39611;46.062;8.950;2023-02-14T14:52:53;97790.75;;;11.34;40.03
52441;BME280;39611;46.062;8.950;2023-02-14T14:55:24;97784.81;;;11.05;40.77
52441;BME280;39611;46.062;8.950;2023-02-14T14:57:57;97790.63;;;11.07;39.64
52441;BME280;39611;46.062;8.950;2023-02-14T15:00:27;97785.28;;;11.02;39.98
52441;BME280;39611;46.062;8.950;2023-02-14T15:02:56;97782.31;;;10.99;40.24
52441;BME280;39611;46.062;8.950;2023-02-14T15:13:42;97778.94;;;11.03;39.89
52441;BME280;39611;46.062;8.950;2023-02-14T15:16:27;97779.09;;;10.97;40.31
52441;BME280;39611;46.062;8.950;2023-02-14T15:18:57;97772.44;;;10.94;40.79
52441;BME280;39611;46.062;8.950;2023-02-14T15:21:25;97776.09;;;10.88;40.37
52441;BME280;39611;46.062;8.950;2023-02-14T15:23:53;97773.13;;;10.84;40.28
52441;BME280;39611;46.062;8.950;2023-02-14T15:26:31;97771.88;;;11.09;39.67
52441;BME280;39611;46.062;8.950;2023-02-14T15:29:03;97769.16;;;10.87;40.44
52441;BME280;39611;46.062;8.950;2023-02-14T15:31:37;97766.13;;;10.78;41.05
52441;BME280;39611;46.062;8.950;2023-02-14T15:34:05;97772.06;;;10.68;41.03
52441;BME280;39611;46.062;8.950;2023-02-14T15:36:33;97768.06;;;10.66;40.89
52441;BME280;39611;46.062;8.950;2023-02-14T15:39:03;97777.38;;;10.68;40.28